Time;durP1;ratioP1;P1;durP2;ratioP2;P2;SDS_P1;SDS_P2;PMS_P1;PMS_P2;Temp;Humidity;BMP_temperature;BMP_pressure;BME280_temperature;BME280_humidity;BME280_pressure;Samples;Min_cycle;Max_cycle;Signal;HPM_P1;HPM_P2
2021/08/10 00:00:11;;;;;;;3.63;3.28;;;;;;;;;;5035799;28;20440;-83
2021/08/10 00:02:37;;;;;;;4.85;3.00;;;;;;;;;;5047915;28;20192;-83
2021/08/10 00:05:04;;;;;;;5.88;2.83;;;;;;;;;;5044504;28;20192;-82
2021/08/10 00:07:30;;;;;;;3.30;2.33;;;;;;;;;;5031404;28;20181;-84
2021/08/10 00:09:56;;;;;;;4.50;3.10;;;;;;;;;;5043236;28;20191;-83
2021/08/10 00:12:22;;;;;;;4.70;3.20;;;;;;;;;;5047153;28;20441;-83
2021/08/10 00:14:48;;;;;;;3.53;2.60;;;;;;;;;;5046050;28;20444;-83
2021/08/10 00:17:14;;;;;;;4.50;2.75;;;;;;;;;;5046058;28;20524;-83
2021/08/10 00:19:41;;;;;;;5.40;3.30;;;;;;;;;;5044024;28;20225;-83
2021/08/10 00:22:07;;;;;;;3.10;2.90;;;;;;;;;;5046336;28;20208;-83
2021/08/10 00:24:33;;;;;;;4.85;2.40;;;;;;;;;;5040770;28;20290;-82
2021/08/10 00:27:02;;;;;;;3.83;2.53;;;;;;;;;;5035538;28;20183;-83
2021/08/10 00:29:28;;;;;;;3.28;2.92;;;;;;;;;;5030279;28;20184;-83
2021/08/10 00:31:54;;;;;;;4.63;2.72;;;;;;;;;;5027333;28;20190;-83
2021/08/10 00:34:20;;;;;;;3.13;2.50;;;;;;;;;;5040085;28;20208;-83
2021/08/10 00:36:46;;;;;;;5.63;4.20;;;;;;;;;;5046938;28;20264;-83
2021/08/10 00:39:12;;;;;;;4.10;2.92;;;;;;;;;;5044117;28;20428;-83
2021/08/10 00:41:38;;;;;;;2.67;2.40;;;;;;;;;;5045884;28;20181;-83
2021/08/10 00:44:05;;;;;;;3.67;3.37;;;;;;;;;;5030036;28;20182;-83
2021/08/10 00:46:31;;;;;;;3.22;2.70;;;;;;;;;;5046071;28;20428;-84
2021/08/10 00:48:57;;;;;;;3.53;2.58;;;;;;;;;;5038024;28;20214;-83
2021/08/10 00:51:23;;;;;;;5.03;3.80;;;;;;;;;;5036391;28;20240;-83
2021/08/10 00:53:49;;;;;;;6.28;2.40;;;;;;;;;;5046277;28;20217;-83
2021/08/10 00:56:15;;;;;;;4.35;3.05;;;;;;;;;;5043884;28;20658;-83
2021/08/10 00:58:41;;;;;;;3.83;2.92;;;;;;;;;;5030084;28;20186;-83
2021/08/10 01:01:07;;;;;;;5.00;3.10;;;;;;;;;;5042899;28;20201;-84
2021/08/10 01:03:33;;;;;;;5.40;3.15;;;;;;;;;;5040392;28;20443;-84
2021/08/10 01:06:01;;;;;;;6.05;3.30;;;;;;;;;;5045860;28;20688;-84
2021/08/10 01:08:48;;;;;;;6.15;3.25;;;;;;;;;;5044271;28;20180;-84
2021/08/10 01:11:13;;;;;;;4.35;3.42;;;;;;;;;;5044077;28;20181;-84
2021/08/10 01:13:42;;;;;;;7.10;3.50;;;;;;;;;;5028757;28;20213;-85
2021/08/10 01:16:20;;;;;;;4.22;3.25;;;;;;;;;;5039389;28;20486;-86
2021/08/10 01:19:05;;;;;;;3.70;3.22;;;;;;;;;;5044714;28;20256;-84
2021/08/10 01:21:38;;;;;;;4.53;2.88;;;;;;;;;;5041125;28;20551;-82
2021/08/10 01:24:14;;;;;;;8.88;4.57;;;;;;;;;;5044493;28;20190;-81
2021/08/10 01:26:47;;;;;;;3.83;3.13;;;;;;;;;;5045114;28;20177;-81
2021/08/10 01:29:12;;;;;;;5.55;3.63;;;;;;;;;;5027828;28;20185;-81
2021/08/10 01:31:42;;;;;;;6.97;3.17;;;;;;;;;;5030531;28;20189;-81
2021/08/10 01:34:14;;;;;;;5.18;3.90;;;;;;;;;;5044003;28;20472;-81
2021/08/10 01:36:41;;;;;;;3.05;2.72;;;;;;;;;;5037984;28;20186;-81
2021/08/10 01:39:08;;;;;;;6.15;3.55;;;;;;;;;;5036097;28;20217;-81
2021/08/10 01:41:35;;;;;;;3.47;3.08;;;;;;;;;;5043528;28;20197;-81
2021/08/10 01:44:01;;;;;;;3.80;3.05;;;;;;;;;;5026243;28;20178;-82
2021/08/10 01:46:28;;;;;;;5.22;3.53;;;;;;;;;;5044812;28;20182;-82
2021/08/10 01:48:56;;;;;;;7.40;3.25;;;;;;;;;;5037201;28;20196;-82
2021/08/10 01:51:23;;;;;;;5.78;3.58;;;;;;;;;;5034912;28;20200;-82
2021/08/10 01:53:50;;;;;;;4.30;3.80;;;;;;;;;;5046201;28;20205;-82
2021/08/10 01:56:18;;;;;;;4.97;3.35;;;;;;;;;;5029357;28;20177;-84
2021/08/10 01:58:44;;;;;;;7.53;4.05;;;;;;;;;;5044079;28;20178;-85
2021/08/10 02:01:10;;;;;;;4.45;3.60;;;;;;;;;;5034361;28;20248;-86
2021/08/10 02:03:37;;;;;;;5.77;3.10;;;;;;;;;;5038743;28;20645;-86
2021/08/10 02:06:04;;;;;;;4.30;3.55;;;;;;;;;;5041824;28;20444;-85
2021/08/10 02:08:31;;;;;;;3.90;3.30;;;;;;;;;;5030945;28;20208;-85
2021/08/10 02:10:57;;;;;;;5.10;3.55;;;;;;;;;;5042720;28;20174;-84
2021/08/10 02:13:23;;;;;;;5.65;3.38;;;;;;;;;;5043209;28;20166;-82
2021/08/10 02:15:50;;;;;;;5.88;3.80;;;;;;;;;;5043327;28;20192;-82
2021/08/10 02:18:18;;;;;;;7.05;4.63;;;;;;;;;;5039831;28;20230;-82
2021/08/10 02:20:46;;;;;;;10.68;4.15;;;;;;;;;;5030356;28;20177;-84
2021/08/10 02:23:15;;;;;;;6.88;3.53;;;;;;;;;;5027948;28;20194;-84
2021/08/10 02:25:42;;;;;;;5.85;3.30;;;;;;;;;;5028093;28;20174;-85
2021/08/10 02:28:08;;;;;;;7.97;5.35;;;;;;;;;;5043558;28;20185;-85
2021/08/10 02:30:39;;;;;;;4.25;3.80;;;;;;;;;;5043084;28;20181;-86
2021/08/10 02:33:07;;;;;;;6.13;3.47;;;;;;;;;;5042091;28;20189;-87
2021/08/10 02:35:34;;;;;;;5.25;3.50;;;;;;;;;;5027147;28;20209;-86
2021/08/10 02:38:02;;;;;;;5.90;3.55;;;;;;;;;;5026453;28;20171;-86
2021/08/10 02:40:28;;;;;;;5.75;3.95;;;;;;;;;;5032332;28;20202;-87
2021/08/10 02:42:57;;;;;;;8.63;3.90;;;;;;;;;;5040939;28;20190;-86
2021/08/10 02:45:23;;;;;;;6.55;3.95;;;;;;;;;;5041023;28;20467;-86
2021/08/10 02:47:56;;;;;;;6.80;3.65;;;;;;;;;;5045279;28;20247;-87
2021/08/10 02:50:23;;;;;;;4.60;3.65;;;;;;;;;;5045013;28;20222;-86
2021/08/10 02:52:49;;;;;;;5.55;3.40;;;;;;;;;;5031110;28;20388;-86
2021/08/10 02:55:18;;;;;;;6.22;3.80;;;;;;;;;;5048160;28;20213;-85
2021/08/10 02:57:54;;;;;;;4.00;3.45;;;;;;;;;;5046637;28;20178;-85
2021/08/10 03:00:21;;;;;;;8.38;3.53;;;;;;;;;;5048629;28;20260;-85
2021/08/10 03:02:48;;;;;;;5.72;3.55;;;;;;;;;;5044988;28;20221;-85
2021/08/10 03:05:22;;;;;;;7.03;3.63;;;;;;;;;;5046340;28;24023;-86
2021/08/10 03:07:50;;;;;;;7.63;3.60;;;;;;;;;;5042019;28;20231;-85
2021/08/10 03:10:16;;;;;;;6.22;3.90;;;;;;;;;;5035367;28;20193;-85
2021/08/10 03:12:46;;;;;;;4.88;3.80;;;;;;;;;;5041502;28;20195;-86
2021/08/10 03:15:13;;;;;;;6.78;3.58;;;;;;;;;;5046964;28;20213;-84
2021/08/10 03:17:40;;;;;;;8.35;4.00;;;;;;;;;;5045198;28;20186;-85
2021/08/10 03:20:07;;;;;;;7.18;3.90;;;;;;;;;;5029478;28;20225;-85
2021/08/10 03:22:35;;;;;;;4.40;3.50;;;;;;;;;;5060438;28;20186;-87
2021/08/10 03:25:02;;;;;;;11.50;4.00;;;;;;;;;;5037807;28;20186;-86
2021/08/10 03:27:28;;;;;;;5.95;3.55;;;;;;;;;;5039664;28;20212;-87
2021/08/10 03:29:55;;;;;;;7.57;3.92;;;;;;;;;;5046191;28;20249;-86
2021/08/10 03:32:21;;;;;;;7.72;3.55;;;;;;;;;;5047513;28;20186;-86
2021/08/10 03:34:48;;;;;;;8.13;3.88;;;;;;;;;;5045626;28;20202;-86
2021/08/10 03:37:15;;;;;;;6.90;4.13;;;;;;;;;;5036425;28;20220;-85
2021/08/10 03:39:41;;;;;;;6.55;3.85;;;;;;;;;;5042460;28;20181;-87
2021/08/10 03:42:08;;;;;;;5.20;3.55;;;;;;;;;;5046079;28;20197;-86
2021/08/10 03:44:35;;;;;;;4.30;3.90;;;;;;;;;;5044598;28;20240;-86
2021/08/10 03:47:01;;;;;;;6.50;3.50;;;;;;;;;;5028501;28;20282;-86
2021/08/10 03:49:29;;;;;;;13.13;3.85;;;;;;;;;;5040950;28;20209;-86
2021/08/10 03:51:55;;;;;;;5.78;3.80;;;;;;;;;;5047703;28;20824;-85
2021/08/10 03:54:21;;;;;;;4.38;3.40;;;;;;;;;;5046961;28;20591;-85
2021/08/10 03:56:49;;;;;;;5.63;3.50;;;;;;;;;;5045497;28;20186;-86
2021/08/10 03:59:16;;;;;;;6.53;3.60;;;;;;;;;;5029930;28;20469;-86
2021/08/10 04:01:43;;;;;;;7.40;3.70;;;;;;;;;;5045719;28;20174;-86
2021/08/10 04:04:09;;;;;;;10.43;3.40;;;;;;;;;;5035518;28;20182;-85
2021/08/10 04:06:37;;;;;;;4.22;3.17;;;;;;;;;;5034539;28;20196;-86
2021/08/10 04:09:04;;;;;;;9.38;4.63;;;;;;;;;;5034818;28;20192;-85
2021/08/10 04:11:30;;;;;;;7.78;4.22;;;;;;;;;;5045440;28;20254;-85
2021/08/10 04:13:56;;;;;;;4.90;3.55;;;;;;;;;;5028588;28;20641;-85
2021/08/10 04:16:23;;;;;;;5.10;3.63;;;;;;;;;;5046640;28;20213;-85
2021/08/10 04:18:50;;;;;;;7.13;4.20;;;;;;;;;;5047111;28;20249;-86
2021/08/10 04:21:19;;;;;;;8.20;4.05;;;;;;;;;;5044441;28;20190;-85
2021/08/10 04:23:45;;;;;;;8.13;3.70;;;;;;;;;;5048138;28;20242;-85
2021/08/10 04:26:11;;;;;;;7.30;3.70;;;;;;;;;;5031257;28;20581;-86
2021/08/10 04:28:37;;;;;;;6.82;3.78;;;;;;;;;;5045891;28;20424;-85
2021/08/10 04:31:03;;;;;;;4.27;3.67;;;;;;;;;;5045150;28;20192;-85
2021/08/10 04:33:29;;;;;;;3.80;3.50;;;;;;;;;;5041407;28;20444;-85
2021/08/10 04:35:55;;;;;;;8.32;4.30;;;;;;;;;;5036113;28;20190;-86
2021/08/10 04:38:21;;;;;;;3.73;3.30;;;;;;;;;;5045200;28;20187;-84
2021/08/10 04:40:47;;;;;;;6.20;3.72;;;;;;;;;;5044399;28;20432;-85
2021/08/10 04:43:13;;;;;;;5.70;3.57;;;;;;;;;;5047385;28;20194;-86
2021/08/10 04:45:39;;;;;;;3.80;3.50;;;;;;;;;;5040176;28;20437;-85
2021/08/10 04:48:05;;;;;;;6.93;4.13;;;;;;;;;;5034750;28;20444;-84
2021/08/10 04:50:31;;;;;;;4.85;3.60;;;;;;;;;;5032146;28;20477;-86
2021/08/10 04:52:57;;;;;;;9.55;4.03;;;;;;;;;;5044503;28;20190;-84
2021/08/10 04:55:23;;;;;;;7.50;3.50;;;;;;;;;;5032500;28;20206;-85
2021/08/10 04:57:49;;;;;;;5.25;3.60;;;;;;;;;;5033011;28;20441;-85
2021/08/10 05:00:15;;;;;;;5.93;4.05;;;;;;;;;;5033654;28;20233;-85
2021/08/10 05:02:41;;;;;;;4.15;3.75;;;;;;;;;;5031080;28;20278;-85
2021/08/10 05:05:08;;;;;;;8.57;3.70;;;;;;;;;;5026353;28;20190;-85
2021/08/10 05:07:35;;;;;;;6.70;3.78;;;;;;;;;;5031598;28;20622;-85
2021/08/10 05:10:02;;;;;;;6.68;4.10;;;;;;;;;;5042022;28;20281;-83
2021/08/10 05:12:28;;;;;;;7.07;3.70;;;;;;;;;;5046231;28;20186;-83
2021/08/10 05:14:54;;;;;;;8.25;3.70;;;;;;;;;;5044522;28;20212;-85
2021/08/10 05:17:20;;;;;;;5.13;3.13;;;;;;;;;;5029398;28;20177;-84
2021/08/10 05:19:46;;;;;;;7.90;3.63;;;;;;;;;;5044583;28;20227;-85
2021/08/10 05:22:12;;;;;;;6.30;3.77;;;;;;;;;;5044446;28;20450;-85
2021/08/10 05:24:38;;;;;;;5.90;3.72;;;;;;;;;;5039320;28;20460;-85
2021/08/10 05:27:04;;;;;;;5.90;3.65;;;;;;;;;;5036177;28;20188;-85
2021/08/10 05:29:30;;;;;;;4.82;3.67;;;;;;;;;;5044203;28;20185;-85
2021/08/10 05:31:56;;;;;;;4.53;3.67;;;;;;;;;;5042475;28;20180;-84
2021/08/10 05:34:22;;;;;;;9.68;3.72;;;;;;;;;;5032169;28;20456;-84
2021/08/10 05:36:48;;;;;;;5.60;3.60;;;;;;;;;;5039232;28;20177;-84
2021/08/10 05:39:14;;;;;;;4.40;3.55;;;;;;;;;;5047350;28;20207;-83
2021/08/10 05:41:40;;;;;;;6.60;3.83;;;;;;;;;;5040359;28;20209;-84
2021/08/10 05:44:06;;;;;;;4.13;3.47;;;;;;;;;;5041557;28;20499;-84
2021/08/10 05:46:32;;;;;;;5.90;3.90;;;;;;;;;;5028504;28;20201;-84
2021/08/10 05:48:59;;;;;;;3.50;3.20;;;;;;;;;;5040809;28;20432;-82
2021/08/10 05:51:25;;;;;;;3.83;3.03;;;;;;;;;;5045582;28;20928;-84
2021/08/10 05:53:51;;;;;;;7.07;3.50;;;;;;;;;;5044718;28;20209;-84
2021/08/10 05:56:17;;;;;;;4.57;3.23;;;;;;;;;;5043175;28;20173;-83
2021/08/10 05:58:43;;;;;;;6.97;4.07;;;;;;;;;;5029453;28;20487;-83
2021/08/10 06:01:09;;;;;;;8.70;3.47;;;;;;;;;;5043678;28;20434;-83
2021/08/10 06:03:35;;;;;;;8.65;3.83;;;;;;;;;;5045552;28;20186;-84
2021/08/10 06:06:01;;;;;;;4.68;3.42;;;;;;;;;;5042084;28;20254;-83
2021/08/10 06:08:27;;;;;;;6.67;3.73;;;;;;;;;;5028221;28;20216;-84
2021/08/10 06:10:53;;;;;;;6.65;3.55;;;;;;;;;;5026858;28;20413;-83
2021/08/10 06:13:20;;;;;;;4.25;2.92;;;;;;;;;;5037142;28;20178;-83
2021/08/10 06:15:45;;;;;;;6.70;3.50;;;;;;;;;;5045830;28;20209;-83
2021/08/10 06:18:11;;;;;;;6.03;3.70;;;;;;;;;;5045316;28;20214;-82
2021/08/10 06:20:37;;;;;;;6.70;4.23;;;;;;;;;;5045452;28;20452;-83
2021/08/10 06:23:05;;;;;;;3.72;3.40;;;;;;;;;;5043546;28;20436;-83
2021/08/10 06:25:31;;;;;;;10.57;3.25;;;;;;;;;;5044305;28;20176;-83
2021/08/10 06:27:57;;;;;;;8.90;3.72;;;;;;;;;;5038700;28;20190;-83
2021/08/10 06:30:23;;;;;;;4.70;3.30;;;;;;;;;;5036874;28;20183;-83
2021/08/10 06:32:49;;;;;;;9.18;3.78;;;;;;;;;;5035759;28;20455;-83
2021/08/10 06:35:15;;;;;;;4.00;3.33;;;;;;;;;;5031705;28;20205;-83
2021/08/10 06:37:41;;;;;;;3.53;2.95;;;;;;;;;;5031424;28;20177;-83
2021/08/10 06:40:08;;;;;;;10.13;3.70;;;;;;;;;;5047289;28;20216;-83
2021/08/10 06:42:34;;;;;;;5.72;3.33;;;;;;;;;;5047026;28;20417;-83
2021/08/10 06:45:01;;;;;;;4.45;3.05;;;;;;;;;;5049414;28;20192;-83
2021/08/10 06:47:27;;;;;;;4.47;3.17;;;;;;;;;;5046058;28;20188;-83
2021/08/10 06:49:53;;;;;;;4.80;3.50;;;;;;;;;;5031735;28;20577;-82
2021/08/10 06:52:19;;;;;;;6.70;3.63;;;;;;;;;;5037704;28;20421;-83
2021/08/10 06:54:45;;;;;;;5.05;3.60;;;;;;;;;;5035236;28;20210;-83
2021/08/10 06:57:11;;;;;;;5.87;3.13;;;;;;;;;;5041153;28;20189;-83
2021/08/10 06:59:38;;;;;;;6.15;3.05;;;;;;;;;;5049529;28;20429;-83
2021/08/10 07:02:04;;;;;;;5.47;3.22;;;;;;;;;;5047814;28;20174;-84
2021/08/10 07:04:31;;;;;;;4.10;3.00;;;;;;;;;;5041328;28;20182;-83
2021/08/10 07:06:57;;;;;;;5.55;3.25;;;;;;;;;;5038697;28;20206;-83
2021/08/10 07:09:23;;;;;;;6.20;3.37;;;;;;;;;;5040067;28;20189;-84
2021/08/10 07:11:49;;;;;;;3.25;2.80;;;;;;;;;;5043708;28;20520;-84
2021/08/10 07:14:15;;;;;;;5.63;4.53;;;;;;;;;;5045196;28;20212;-84
2021/08/10 07:16:42;;;;;;;4.78;3.75;;;;;;;;;;5032502;28;20253;-83
2021/08/10 07:19:08;;;;;;;3.28;2.72;;;;;;;;;;5045938;28;20308;-83
2021/08/10 07:21:34;;;;;;;6.25;3.13;;;;;;;;;;5047061;28;20209;-84
2021/08/10 07:24:00;;;;;;;4.90;3.30;;;;;;;;;;5046120;28;20186;-84
2021/08/10 07:26:26;;;;;;;6.32;3.30;;;;;;;;;;5047763;28;20192;-84
2021/08/10 07:28:53;;;;;;;4.40;2.97;;;;;;;;;;5029616;28;20190;-84
2021/08/10 07:31:19;;;;;;;4.93;3.13;;;;;;;;;;5036270;28;20308;-84
2021/08/10 07:33:45;;;;;;;5.90;3.25;;;;;;;;;;5033862;28;20182;-85
2021/08/10 07:36:10;;;;;;;3.20;2.90;;;;;;;;;;5037355;28;20181;-84
2021/08/10 07:38:37;;;;;;;4.10;3.10;;;;;;;;;;5042743;28;21003;-83
2021/08/10 07:41:03;;;;;;;4.30;3.17;;;;;;;;;;5030877;28;20409;-84
2021/08/10 07:43:29;;;;;;;4.72;3.20;;;;;;;;;;5034122;28;20261;-84
2021/08/10 07:45:55;;;;;;;5.70;3.60;;;;;;;;;;5043560;28;20264;-85
2021/08/10 07:48:21;;;;;;;3.17;2.83;;;;;;;;;;5042153;28;20501;-85
2021/08/10 07:50:50;;;;;;;4.75;3.08;;;;;;;;;;5044738;28;20447;-84
2021/08/10 07:53:20;;;;;;;3.25;2.95;;;;;;;;;;5029292;28;20227;-85
2021/08/10 07:55:46;;;;;;;5.18;2.80;;;;;;;;;;5045626;28;20197;-84
2021/08/10 07:58:12;;;;;;;3.40;2.88;;;;;;;;;;5035968;28;20209;-85
2021/08/10 08:00:38;;;;;;;5.07;3.08;;;;;;;;;;5041114;28;20189;-84
2021/08/10 08:03:04;;;;;;;4.22;3.30;;;;;;;;;;5045964;28;20194;-84
2021/08/10 08:05:30;;;;;;;3.90;3.00;;;;;;;;;;5045586;28;20665;-84
2021/08/10 08:07:56;;;;;;;4.90;3.28;;;;;;;;;;5044653;28;20189;-84
2021/08/10 08:10:22;;;;;;;6.78;3.30;;;;;;;;;;5048047;28;20238;-84
2021/08/10 08:12:48;;;;;;;4.60;2.93;;;;;;;;;;5046505;28;20198;-83
2021/08/10 08:15:14;;;;;;;3.93;2.30;;;;;;;;;;5047016;28;20500;-85
2021/08/10 08:17:40;;;;;;;6.13;2.97;;;;;;;;;;5046760;28;20502;-84
2021/08/10 08:20:07;;;;;;;4.70;2.90;;;;;;;;;;5043779;28;20496;-84
2021/08/10 08:22:33;;;;;;;8.20;3.08;;;;;;;;;;5030034;28;20179;-84
2021/08/10 08:24:59;;;;;;;5.32;2.85;;;;;;;;;;5044971;28;20646;-84
2021/08/10 08:27:25;;;;;;;6.07;3.45;;;;;;;;;;5043468;28;20277;-84
2021/08/10 08:29:51;;;;;;;10.50;2.55;;;;;;;;;;5045390;28;20181;-84
2021/08/10 08:32:17;;;;;;;7.30;3.15;;;;;;;;;;5028874;28;20210;-84
2021/08/10 08:34:43;;;;;;;4.07;2.93;;;;;;;;;;5030203;28;20226;-84
2021/08/10 08:37:10;;;;;;;3.42;2.90;;;;;;;;;;5032805;28;20500;-85
2021/08/10 08:39:37;;;;;;;5.25;3.97;;;;;;;;;;5041497;28;20277;-85
2021/08/10 08:42:03;;;;;;;3.80;3.50;;;;;;;;;;5046783;28;20178;-85
2021/08/10 08:44:36;;;;;;;5.78;3.10;;;;;;;;;;5045973;28;20190;-84
2021/08/10 08:47:06;;;;;;;8.45;3.33;;;;;;;;;;5044225;28;20182;-85
2021/08/10 08:49:32;;;;;;;5.20;2.58;;;;;;;;;;5045647;28;20178;-85
2021/08/10 08:52:06;;;;;;;3.78;3.42;;;;;;;;;;5036076;28;20190;-86
2021/08/10 08:54:33;;;;;;;3.65;3.28;;;;;;;;;;5038359;28;20213;-86
2021/08/10 08:57:00;;;;;;;3.78;2.90;;;;;;;;;;5044009;28;20183;-86
2021/08/10 08:59:26;;;;;;;5.63;3.13;;;;;;;;;;5046380;28;20202;-86
2021/08/10 09:01:52;;;;;;;4.38;3.30;;;;;;;;;;5044053;28;20171;-87
2021/08/10 09:04:19;;;;;;;4.55;3.10;;;;;;;;;;5033206;28;20183;-85
2021/08/10 09:06:46;;;;;;;3.28;2.95;;;;;;;;;;5034836;28;20208;-86
2021/08/10 09:09:20;;;;;;;3.42;2.70;;;;;;;;;;5034992;28;20195;-86
2021/08/10 09:11:54;;;;;;;3.30;3.00;;;;;;;;;;5045860;28;20270;-86
2021/08/10 09:14:21;;;;;;;3.20;2.90;;;;;;;;;;5045792;28;20218;-86
2021/08/10 09:17:03;;;;;;;5.70;3.00;;;;;;;;;;5028746;28;20192;-86
2021/08/10 09:19:46;;;;;;;8.23;3.20;;;;;;;;;;5031123;28;20217;-86
2021/08/10 09:22:13;;;;;;;5.90;3.00;;;;;;;;;;5032875;28;20283;-86
2021/08/10 09:24:43;;;;;;;3.83;3.20;;;;;;;;;;5035511;28;20195;-86
2021/08/10 09:27:38;;;;;;;2.83;2.63;;;;;;;;;;5044966;28;20188;-85
2021/08/10 09:30:05;;;;;;;3.58;2.00;;;;;;;;;;5076657;28;20200;-86
2021/08/10 09:32:32;;;;;;;5.27;2.70;;;;;;;;;;5041409;28;20191;-86
2021/08/10 09:35:07;;;;;;;5.77;3.37;;;;;;;;;;5028001;28;20461;-86
2021/08/10 09:37:33;;;;;;;3.90;2.72;;;;;;;;;;5042511;28;20382;-86
2021/08/10 09:39:59;;;;;;;3.60;2.03;;;;;;;;;;5042921;28;20183;-86
2021/08/10 09:42:28;;;;;;;3.33;3.03;;;;;;;;;;5041874;28;20190;-86
2021/08/10 09:44:57;;;;;;;3.33;3.03;;;;;;;;;;5045884;28;20189;-86
2021/08/10 09:47:33;;;;;;;3.50;3.20;;;;;;;;;;5030638;28;20440;-86
2021/08/10 09:50:02;;;;;;;4.00;3.00;;;;;;;;;;5036789;28;20433;-84
2021/08/10 09:52:29;;;;;;;2.87;2.63;;;;;;;;;;5042810;28;20399;-86
2021/08/10 09:54:56;;;;;;;2.73;2.13;;;;;;;;;;5034668;28;20540;-86
2021/08/10 09:57:22;;;;;;;4.00;2.47;;;;;;;;;;5032293;28;21033;-86
2021/08/10 09:59:48;;;;;;;4.40;3.00;;;;;;;;;;5030292;28;20428;-85
2021/08/10 10:02:18;;;;;;;4.30;2.40;;;;;;;;;;5041827;28;20509;-86
2021/08/10 10:04:54;;;;;;;2.73;2.53;;;;;;;;;;5027976;28;20459;-86
2021/08/10 10:07:21;;;;;;;5.23;2.57;;;;;;;;;;5039732;28;20412;-86
2021/08/10 10:09:47;;;;;;;3.80;2.53;;;;;;;;;;5036314;28;20449;-87
2021/08/10 10:12:14;;;;;;;3.23;2.40;;;;;;;;;;5036925;28;21029;-84
2021/08/10 10:14:40;;;;;;;3.80;2.30;;;;;;;;;;5044259;28;20542;-86
2021/08/10 10:17:10;;;;;;;3.20;2.50;;;;;;;;;;5028274;28;20480;-87
2021/08/10 10:19:37;;;;;;;4.47;2.55;;;;;;;;;;5039733;28;20431;-85
2021/08/10 10:22:04;;;;;;;3.63;2.50;;;;;;;;;;5034237;28;20198;-85
2021/08/10 10:24:35;;;;;;;2.50;2.30;;;;;;;;;;5036716;28;20940;-86
2021/08/10 10:27:06;;;;;;;2.57;2.37;;;;;;;;;;5044561;28;20426;-86
2021/08/10 10:29:33;;;;;;;2.67;1.90;;;;;;;;;;5045223;28;20937;-87
2021/08/10 10:31:59;;;;;;;2.40;2.20;;;;;;;;;;5041967;28;20425;-86
2021/08/10 10:34:25;;;;;;;2.60;2.10;;;;;;;;;;5044716;28;20502;-86
2021/08/10 10:36:51;;;;;;;5.57;2.53;;;;;;;;;;5045697;28;20471;-87
2021/08/10 10:39:31;;;;;;;2.13;2.00;;;;;;;;;;5039689;28;20932;-84
2021/08/10 10:42:06;;;;;;;2.17;1.97;;;;;;;;;;5033325;28;20445;-86
2021/08/10 10:44:39;;;;;;;2.00;1.90;;;;;;;;;;5044622;28;20926;-86
2021/08/10 10:47:24;;;;;;;2.00;1.90;;;;;;;;;;5025900;28;20457;-86
2021/08/10 10:49:56;;;;;;;2.87;1.90;;;;;;;;;;5054180;28;20991;-85
2021/08/10 10:52:25;;;;;;;2.50;2.30;;;;;;;;;;5032267;28;20408;-85
2021/08/10 10:54:53;;;;;;;2.73;2.40;;;;;;;;;;5030779;28;20443;-85
2021/08/10 10:57:35;;;;;;;2.23;1.63;;;;;;;;;;5033629;28;20433;-86
2021/08/10 11:00:02;;;;;;;2.07;1.97;;;;;;;;;;5032192;28;20436;-85
2021/08/10 11:02:28;;;;;;;2.87;2.20;;;;;;;;;;5045120;28;24460;-86
2021/08/10 11:05:06;;;;;;;2.43;2.23;;;;;;;;;;5041832;28;20432;-85
2021/08/10 11:07:38;;;;;;;3.20;2.30;;;;;;;;;;5045477;28;20495;-86
2021/08/10 11:10:05;;;;;;;2.53;2.33;;;;;;;;;;5045256;28;20462;-85
2021/08/10 11:12:42;;;;;;;4.83;2.77;;;;;;;;;;5039728;28;20445;-86
2021/08/10 11:15:12;;;;;;;3.00;2.73;;;;;;;;;;5037328;28;20464;-85
2021/08/10 11:17:38;;;;;;;2.27;2.03;;;;;;;;;;5031336;28;20468;-86
2021/08/10 11:20:27;;;;;;;2.67;2.40;;;;;;;;;;5028816;28;20467;-87
2021/08/10 11:23:20;;;;;;;2.87;2.50;;;;;;;;;;5074766;28;20426;-86
2021/08/10 11:25:46;;;;;;;2.13;1.93;;;;;;;;;;5057360;28;20429;-84
2021/08/10 11:28:31;;;;;;;3.20;1.77;;;;;;;;;;5035826;28;20506;-85
2021/08/10 11:30:58;;;;;;;1.83;1.73;;;;;;;;;;5041779;28;20459;-85
2021/08/10 11:33:34;;;;;;;2.53;2.13;;;;;;;;;;5047632;28;20446;-85
2021/08/10 11:36:12;;;;;;;3.53;2.13;;;;;;;;;;5046839;28;20824;-85
2021/08/10 11:38:45;;;;;;;2.10;1.90;;;;;;;;;;5047139;28;20425;-85
2021/08/10 11:41:13;;;;;;;3.90;2.10;;;;;;;;;;5030004;28;20425;-84
2021/08/10 11:43:45;;;;;;;2.30;1.83;;;;;;;;;;5030676;28;20412;-84
2021/08/10 11:46:16;;;;;;;2.73;2.53;;;;;;;;;;5035273;28;20412;-84
2021/08/10 11:48:46;;;;;;;3.30;2.07;;;;;;;;;;5044039;28;20407;-84
2021/08/10 11:51:16;;;;;;;3.70;2.10;;;;;;;;;;5043134;28;20467;-85
2021/08/10 11:53:42;;;;;;;2.27;2.07;;;;;;;;;;5033568;28;20457;-85
2021/08/10 11:56:20;;;;;;;1.77;1.67;;;;;;;;;;5030634;28;20420;-86
2021/08/10 11:58:46;;;;;;;2.30;1.83;;;;;;;;;;5046912;28;20726;-85
2021/08/10 12:01:13;;;;;;;1.90;1.80;;;;;;;;;;5044495;28;20807;-86
2021/08/10 12:03:39;;;;;;;2.30;1.50;;;;;;;;;;5044887;28;20413;-83
2021/08/10 12:06:05;;;;;;;2.67;1.97;;;;;;;;;;5045020;28;20493;-84
2021/08/10 12:08:31;;;;;;;2.90;2.20;;;;;;;;;;5032636;28;20493;-85
2021/08/10 12:10:57;;;;;;;2.87;1.73;;;;;;;;;;5028592;28;20391;-84
2021/08/10 12:13:24;;;;;;;3.50;2.30;;;;;;;;;;5041950;28;20475;-85
2021/08/10 12:15:51;;;;;;;2.03;1.60;;;;;;;;;;5036164;28;20971;-86
2021/08/10 12:18:22;;;;;;;3.30;1.70;;;;;;;;;;5036489;28;20479;-84
2021/08/10 12:20:56;;;;;;;2.00;1.40;;;;;;;;;;5046803;28;20443;-85
2021/08/10 12:23:22;;;;;;;1.97;1.60;;;;;;;;;;5043992;28;20962;-84
2021/08/10 12:25:48;;;;;;;1.70;1.47;;;;;;;;;;5040697;28;20413;-84
2021/08/10 12:28:14;;;;;;;2.80;1.70;;;;;;;;;;5036038;28;20444;-86
2021/08/10 12:30:42;;;;;;;2.57;1.77;;;;;;;;;;5033111;28;20444;-85
2021/08/10 12:33:12;;;;;;;1.97;1.73;;;;;;;;;;5037657;28;20470;-86
2021/08/10 12:35:38;;;;;;;1.93;1.80;;;;;;;;;;5045540;28;20554;-84
2021/08/10 12:38:05;;;;;;;1.60;1.50;;;;;;;;;;5029276;28;20414;-86
2021/08/10 12:40:31;;;;;;;3.53;1.77;;;;;;;;;;5046181;28;20421;-85
2021/08/10 12:42:57;;;;;;;1.50;1.40;;;;;;;;;;5043153;28;20808;-85
2021/08/10 12:45:30;;;;;;;1.60;1.40;;;;;;;;;;5040214;28;20454;-85
2021/08/10 12:47:56;;;;;;;2.40;1.77;;;;;;;;;;5034585;28;20459;-85
2021/08/10 12:50:22;;;;;;;1.50;1.40;;;;;;;;;;5029374;28;20514;-85
2021/08/10 12:52:48;;;;;;;1.60;1.50;;;;;;;;;;5029874;28;20509;-84
2021/08/10 12:55:14;;;;;;;1.90;1.70;;;;;;;;;;5044046;28;20499;-85
2021/08/10 12:57:40;;;;;;;1.40;1.27;;;;;;;;;;5040612;28;20438;-85
2021/08/10 13:00:16;;;;;;;1.60;1.40;;;;;;;;;;5034743;28;20444;-86
2021/08/10 13:02:43;;;;;;;1.83;1.23;;;;;;;;;;5046622;28;20445;-85
2021/08/10 13:05:10;;;;;;;1.60;1.50;;;;;;;;;;5043898;28;20434;-85
2021/08/10 13:07:37;;;;;;;1.70;1.60;;;;;;;;;;5031498;28;20899;-83
2021/08/10 13:10:07;;;;;;;2.80;1.63;;;;;;;;;;5036105;28;20513;-85
2021/08/10 13:12:33;;;;;;;1.63;1.53;;;;;;;;;;5038586;28;20442;-85
2021/08/10 13:15:06;;;;;;;1.60;1.50;;;;;;;;;;5043161;28;20471;-85
2021/08/10 13:17:33;;;;;;;1.43;1.33;;;;;;;;;;5045528;28;20464;-85
2021/08/10 13:20:08;;;;;;;2.70;1.30;;;;;;;;;;5042395;28;20471;-85
2021/08/10 13:22:48;;;;;;;3.50;1.57;;;;;;;;;;5038131;28;20429;-86
2021/08/10 13:25:32;;;;;;;1.73;1.57;;;;;;;;;;5033590;28;20855;-86
2021/08/10 13:28:09;;;;;;;2.10;1.50;;;;;;;;;;5043074;28;20929;-85
2021/08/10 13:30:35;;;;;;;1.63;1.30;;;;;;;;;;5043079;28;20432;-84
2021/08/10 13:33:01;;;;;;;2.70;1.70;;;;;;;;;;5044775;28;20470;-84
2021/08/10 13:35:27;;;;;;;1.73;1.30;;;;;;;;;;5045699;28;20458;-84
2021/08/10 13:37:53;;;;;;;1.60;1.20;;;;;;;;;;5026579;28;20412;-84
2021/08/10 13:40:19;;;;;;;2.13;1.40;;;;;;;;;;5062186;28;20417;-84
2021/08/10 13:42:45;;;;;;;2.07;1.90;;;;;;;;;;5044915;28;20486;-84
2021/08/10 13:45:11;;;;;;;1.57;1.47;;;;;;;;;;5043105;28;20935;-84
2021/08/10 13:47:37;;;;;;;1.93;1.67;;;;;;;;;;5041653;28;20444;-85
2021/08/10 13:50:04;;;;;;;1.90;1.57;;;;;;;;;;5025408;28;20431;-85
2021/08/10 13:52:30;;;;;;;1.70;1.60;;;;;;;;;;5031710;28;20428;-85
2021/08/10 13:54:56;;;;;;;2.17;1.97;;;;;;;;;;5037097;28;20438;-85
2021/08/10 13:57:24;;;;;;;1.60;1.50;;;;;;;;;;5046155;28;20446;-83
2021/08/10 13:59:50;;;;;;;2.30;1.60;;;;;;;;;;5044180;28;20432;-84
2021/08/10 14:02:17;;;;;;;1.50;1.30;;;;;;;;;;5042174;28;20446;-84
2021/08/10 14:04:43;;;;;;;1.40;1.30;;;;;;;;;;5044542;28;20891;-85
2021/08/10 14:07:09;;;;;;;3.80;1.23;;;;;;;;;;5045301;28;20447;-83
2021/08/10 14:09:35;;;;;;;2.20;1.50;;;;;;;;;;5039826;28;20450;-84
2021/08/10 14:12:03;;;;;;;1.57;1.40;;;;;;;;;;5034738;28;20472;-85
2021/08/10 14:14:29;;;;;;;2.47;1.77;;;;;;;;;;5045381;28;20477;-84
2021/08/10 14:16:56;;;;;;;1.60;1.43;;;;;;;;;;5026339;28;20428;-85
2021/08/10 14:19:22;;;;;;;1.23;1.13;;;;;;;;;;5046048;28;20485;-84
2021/08/10 14:21:48;;;;;;;1.23;1.13;;;;;;;;;;5035804;28;20594;-85
2021/08/10 14:24:14;;;;;;;1.83;1.20;;;;;;;;;;5030114;28;20459;-85
2021/08/10 14:26:40;;;;;;;1.50;1.40;;;;;;;;;;5041603;28;21048;-85
2021/08/10 14:29:06;;;;;;;2.20;1.00;;;;;;;;;;5042298;28;20469;-84
2021/08/10 14:31:32;;;;;;;2.10;1.33;;;;;;;;;;5045944;28;20451;-86
2021/08/10 14:33:58;;;;;;;1.30;1.10;;;;;;;;;;5044918;28;20469;-83
2021/08/10 14:36:24;;;;;;;1.67;1.10;;;;;;;;;;5040116;28;20495;-86
2021/08/10 14:38:50;;;;;;;1.40;1.20;;;;;;;;;;5030055;28;20450;-84
2021/08/10 14:41:16;;;;;;;1.70;1.43;;;;;;;;;;5043868;28;20522;-84
2021/08/10 14:43:42;;;;;;;1.30;1.17;;;;;;;;;;5043634;28;20435;-84
2021/08/10 14:46:08;;;;;;;2.30;1.40;;;;;;;;;;5042698;28;20415;-85